createdAt,value
2022-11-14T00:00:00.452Z,11.8
2022-11-14T00:01:07.569Z,11.8
2022-11-14T00:02:14.662Z,11.9
2022-11-14T00:03:21.773Z,11.9
2022-11-14T00:04:29.647Z,11.9
2022-11-14T00:05:35.485Z,11.9
2022-11-14T00:06:42.627Z,11.9
2022-11-14T00:07:49.684Z,11.8
2022-11-14T00:08:57.220Z,11.8
2022-11-14T00:10:03.319Z,11.8
2022-11-14T00:11:10.458Z,11.8
2022-11-14T00:12:17.549Z,11.8
2022-11-14T00:13:24.722Z,11.8
2022-11-14T00:14:31.857Z,11.8
2022-11-14T00:15:38.402Z,11.8
2022-11-14T00:16:46.534Z,11.8
2022-11-14T00:17:52.544Z,11.8
2022-11-14T00:18:59.702Z,11.7
2022-11-14T00:20:06.842Z,11.7
2022-11-14T00:21:13.884Z,11.7
2022-11-14T00:22:20.467Z,11.7
2022-11-14T00:23:27.600Z,11.7
2022-11-14T00:24:34.771Z,11.7
2022-11-14T00:25:41.850Z,11.7
2022-11-14T00:26:48.421Z,11.7
2022-11-14T00:27:55.541Z,11.7
2022-11-14T00:29:02.553Z,11.7
2022-11-14T00:30:09.723Z,11.7
2022-11-14T00:31:16.802Z,11.7
2022-11-14T00:32:23.418Z,11.7
2022-11-14T00:33:30.490Z,11.7
2022-11-14T00:34:37.600Z,11.7
2022-11-14T00:35:44.693Z,11.7
2022-11-14T00:36:51.884Z,11.7
2022-11-14T00:39:05.532Z,11.7
2022-11-14T00:40:12.649Z,11.7
2022-11-14T00:41:19.672Z,11.6
2022-11-14T00:42:26.820Z,11.7
2022-11-14T00:43:33.358Z,11.7
2022-11-14T00:44:40.467Z,11.7
2022-11-14T00:45:47.607Z,11.7
2022-11-14T00:46:54.804Z,11.7
2022-11-14T00:48:01.840Z,11.7
2022-11-14T00:49:08.454Z,11.6
2022-11-14T00:50:15.568Z,11.6
2022-11-14T00:52:29.748Z,11.6
2022-11-14T00:53:36.882Z,11.6
2022-11-14T00:54:43.422Z,11.6
2022-11-14T00:55:50.502Z,11.6
2022-11-14T00:56:57.619Z,11.6
2022-11-14T00:58:04.719Z,11.6
2022-11-14T00:59:11.302Z,11.6
2022-11-14T01:00:18.418Z,11.6
2022-11-14T01:01:25.624Z,11.6
2022-11-14T01:02:32.648Z,11.6
2022-11-14T01:03:39.865Z,11.6
2022-11-14T01:04:46.329Z,11.5
2022-11-14T01:05:53.460Z,11.5
2022-11-14T01:07:00.497Z,11.5
2022-11-14T01:08:07.652Z,11.5
2022-11-14T01:09:14.911Z,11.4
2022-11-14T01:10:21.395Z,11.4
2022-11-14T01:11:28.463Z,11.4
2022-11-14T01:13:42.651Z,11.4
2022-11-14T01:14:49.897Z,11.4
2022-11-14T01:15:56.412Z,11.4
2022-11-14T01:17:03.407Z,11.4
2022-11-14T01:18:10.565Z,11.4
2022-11-14T01:20:24.807Z,11.4
2022-11-14T01:21:31.369Z,11.3
2022-11-14T01:22:38.491Z,11.3
2022-11-14T01:23:45.580Z,11.3
2022-11-14T01:24:52.650Z,11.3
2022-11-14T01:25:59.798Z,11.3
2022-11-14T01:27:06.369Z,11.3
2022-11-14T01:28:13.414Z,11.3
2022-11-14T01:29:20.587Z,11.2
2022-11-14T01:30:27.700Z,11.2
2022-11-14T01:31:34.819Z,11.2
2022-11-14T01:32:41.330Z,11.2
2022-11-14T01:33:48.478Z,11.2
2022-11-14T01:34:55.620Z,11.2
2022-11-14T01:36:02.700Z,11.2
2022-11-14T01:37:09.775Z,11.1
2022-11-14T01:38:16.419Z,11.1
2022-11-14T01:39:23.450Z,11.1
2022-11-14T01:40:30.053Z,11.1
2022-11-14T01:41:37.686Z,11.1
2022-11-14T01:42:47.871Z,11.1
2022-11-14T01:43:51.373Z,11
2022-11-14T01:44:58.512Z,11
2022-11-14T01:46:05.632Z,11
2022-11-14T01:47:12.657Z,11
2022-11-14T01:48:19.856Z,11
2022-11-14T01:49:26.944Z,11
2022-11-14T01:50:33.454Z,11
2022-11-14T01:51:40.759Z,11
2022-11-14T01:52:47.967Z,11
2022-11-14T01:53:54.814Z,11
2022-11-14T01:56:08.506Z,10.9
2022-11-14T01:57:15.580Z,10.9
2022-11-14T01:58:22.732Z,10.9
2022-11-14T01:59:29.795Z,10.9
2022-11-14T02:01:43.616Z,10.9
2022-11-14T02:02:50.620Z,10.9
2022-11-14T02:03:57.735Z,10.9
2022-11-14T02:05:04.813Z,10.9
2022-11-14T02:06:11.459Z,10.9
2022-11-14T02:07:18.626Z,10.9
2022-11-14T02:09:32.733Z,10.9
2022-11-14T02:10:39.831Z,10.9
2022-11-14T02:11:46.453Z,10.9
2022-11-14T02:12:53.559Z,10.9
2022-11-14T02:14:00.580Z,10.9
2022-11-14T02:15:07.719Z,10.9
2022-11-14T02:16:14.358Z,10.8
2022-11-14T02:17:30.529Z,10.8
2022-11-14T02:18:28.829Z,10.8
2022-11-14T02:19:35.678Z,10.8
2022-11-14T02:20:42.721Z,10.8
2022-11-14T02:21:49.366Z,10.8
2022-11-14T02:22:56.454Z,10.8
2022-11-14T02:24:03.495Z,10.8
2022-11-14T02:25:10.627Z,10.8
2022-11-14T02:35:13.568Z,10.8
2022-11-14T02:44:09.398Z,10.7
2022-11-14T02:45:16.480Z,10.7
2022-11-14T02:46:23.598Z,10.7
2022-11-14T02:47:30.628Z,10.7
2022-11-14T02:48:37.783Z,10.7
2022-11-14T02:49:44.367Z,10.7
2022-11-14T02:50:51.452Z,10.7
2022-11-14T02:51:58.568Z,10.7
2022-11-14T02:53:05.701Z,10.7
2022-11-14T02:54:12.749Z,10.7
2022-11-14T02:55:19.381Z,10.7
2022-11-14T02:56:26.500Z,10.7
2022-11-14T02:57:33.572Z,10.7
2022-11-14T02:59:47.781Z,10.7
2022-11-14T03:01:19.125Z,10.7
2022-11-14T03:02:01.592Z,10.7
2022-11-14T03:03:08.619Z,10.7
2022-11-14T03:05:22.809Z,10.7
2022-11-14T03:06:29.465Z,10.7
2022-11-14T03:07:36.529Z,10.7
2022-11-14T03:08:43.577Z,10.7
2022-11-14T03:09:50.719Z,10.7
2022-11-14T03:10:57.810Z,10.7
2022-11-14T03:12:04.425Z,10.7
2022-11-14T03:13:11.518Z,10.7
2022-11-14T03:14:18.596Z,10.7
2022-11-14T03:15:25.727Z,10.7
2022-11-14T03:16:32.865Z,10.7
2022-11-14T03:17:39.914Z,10.7
2022-11-14T03:18:46.704Z,10.7
2022-11-14T03:19:53.573Z,10.7
2022-11-14T03:21:00.743Z,10.7
2022-11-14T03:22:07.369Z,10.7
2022-11-14T03:24:21.499Z,10.7
2022-11-14T03:25:28.651Z,10.7
2022-11-14T03:26:35.730Z,10.7
2022-11-14T03:27:42.310Z,10.7
2022-11-14T03:28:49.421Z,10.7
2022-11-14T03:29:56.518Z,10.7
2022-11-14T03:31:03.581Z,10.7
2022-11-14T03:32:10.727Z,10.7
2022-11-14T03:33:17.322Z,10.7
2022-11-14T03:34:24.424Z,10.7
2022-11-14T03:35:31.520Z,10.7
2022-11-14T03:36:38.748Z,10.7
2022-11-14T03:37:45.741Z,10.7
2022-11-14T03:38:52.301Z,10.7
2022-11-14T03:39:59.431Z,10.7
2022-11-14T03:41:06.574Z,10.7
2022-11-14T03:42:13.616Z,10.7
2022-11-14T03:43:20.741Z,10.7
2022-11-14T03:44:27.382Z,10.7
2022-11-14T03:45:34.426Z,10.7
2022-11-14T03:46:41.551Z,10.7
2022-11-14T03:47:48.681Z,10.7
2022-11-14T03:48:55.786Z,10.7
2022-11-14T03:50:02.299Z,10.7
2022-11-14T03:51:09.436Z,10.7
2022-11-14T03:52:16.547Z,10.6
2022-11-14T03:53:23.641Z,10.7
2022-11-14T03:54:30.785Z,10.6
2022-11-14T03:55:37.339Z,10.6
2022-11-14T03:56:44.501Z,10.6
2022-11-14T03:57:51.556Z,10.6
2022-11-14T03:58:58.688Z,10.6
2022-11-14T04:01:12.527Z,10.7
2022-11-14T04:03:26.612Z,10.7
2022-11-14T04:05:40.792Z,10.7
2022-11-14T04:06:48.446Z,10.7
2022-11-14T04:07:54.527Z,10.7
2022-11-14T04:10:08.711Z,10.7
2022-11-14T04:11:15.820Z,10.7
2022-11-14T04:12:22.402Z,10.7
2022-11-14T04:13:29.540Z,10.7
2022-11-14T04:14:36.576Z,10.7
2022-11-14T04:15:43.768Z,10.7
2022-11-14T04:16:50.819Z,10.7
2022-11-14T04:17:57.434Z,10.7
2022-11-14T04:19:04.491Z,10.7
2022-11-14T04:20:11.600Z,10.7
2022-11-14T04:21:18.708Z,10.7
2022-11-14T04:22:25.825Z,10.7
2022-11-14T04:23:32.413Z,10.7
2022-11-14T04:24:39.538Z,10.7
2022-11-14T04:25:46.661Z,10.7
2022-11-14T04:26:53.675Z,10.7
2022-11-14T04:28:00.340Z,10.7
2022-11-14T04:29:07.448Z,10.7
2022-11-14T04:30:14.508Z,10.7
2022-11-14T04:31:21.627Z,10.7
2022-11-14T04:32:28.773Z,10.7
2022-11-14T04:33:35.352Z,10.7
2022-11-14T04:34:42.382Z,10.7
2022-11-14T04:35:49.533Z,10.7
2022-11-14T04:36:56.638Z,10.7
2022-11-14T04:38:03.684Z,10.7
2022-11-14T04:39:10.306Z,10.7
2022-11-14T04:40:17.462Z,10.7
2022-11-14T04:41:24.475Z,10.7
2022-11-14T04:42:31.622Z,10.7
2022-11-14T04:43:38.763Z,10.7
2022-11-14T04:44:45.330Z,10.7
2022-11-14T04:46:59.592Z,10.6
2022-11-14T04:48:06.669Z,10.6
2022-11-14T04:49:13.751Z,10.6
2022-11-14T04:50:20.292Z,10.6
2022-11-14T04:51:27.443Z,10.6
2022-11-14T04:52:34.611Z,10.6
2022-11-14T04:53:41.621Z,10.5
2022-11-14T04:54:48.782Z,10.5
2022-11-14T04:57:02.403Z,10.6
2022-11-14T04:58:09.582Z,10.6
2022-11-14T04:59:20.695Z,10.6
2022-11-14T05:00:23.713Z,10.6
2022-11-14T05:01:30.428Z,10.6
2022-11-14T05:02:38.510Z,10.6
2022-11-14T05:03:45.583Z,10.5
2022-11-14T05:04:51.612Z,10.6
2022-11-14T05:07:05.447Z,10.6
2022-11-14T05:08:12.450Z,10.6
2022-11-14T05:09:19.535Z,10.6
2022-11-14T05:10:26.679Z,10.5
2022-11-14T05:11:33.726Z,10.6
2022-11-14T05:12:40.338Z,10.6
2022-11-14T05:13:47.499Z,10.6
2022-11-14T05:14:54.597Z,10.6
2022-11-14T05:16:01.691Z,10.6
2022-11-14T05:17:08.899Z,10.6
2022-11-14T05:18:15.358Z,10.7
2022-11-14T05:19:22.462Z,10.7
2022-11-14T05:20:29.581Z,10.7
2022-11-14T05:21:36.722Z,10.7
2022-11-14T05:22:43.813Z,10.7
2022-11-14T05:23:50.340Z,10.7
2022-11-14T05:24:57.523Z,10.7
2022-11-14T05:26:04.581Z,10.7
2022-11-14T05:28:18.391Z,10.7
2022-11-14T05:29:25.415Z,10.7
2022-11-14T05:30:32.463Z,10.7
2022-11-14T05:31:39.661Z,10.7
2022-11-14T05:32:48.122Z,10.7
2022-11-14T05:33:53.252Z,10.7
2022-11-14T05:35:00.397Z,10.7
2022-11-14T05:36:07.501Z,10.7
2022-11-14T05:37:14.621Z,10.7
2022-11-14T05:38:21.670Z,10.7
2022-11-14T05:39:28.321Z,10.7
2022-11-14T05:40:35.429Z,10.7
2022-11-14T05:41:42.453Z,10.7
2022-11-14T05:42:49.642Z,10.7
2022-11-14T05:43:56.743Z,10.7
2022-11-14T05:45:04.327Z,10.7
2022-11-14T05:48:24.701Z,10.7
2022-11-14T05:49:31.741Z,10.7
2022-11-14T05:57:20.391Z,10.6
2022-11-14T05:59:34.638Z,10.6
2022-11-14T06:00:48.943Z,10.6
2022-11-14T06:01:48.434Z,10.6
2022-11-14T06:02:55.465Z,10.6
2022-11-14T06:04:02.541Z,10.5
2022-11-14T06:05:09.664Z,10.5
2022-11-14T06:06:16.757Z,10.5
2022-11-14T06:07:23.347Z,10.5
2022-11-14T06:10:44.652Z,10.5
2022-11-14T06:11:51.731Z,10.5
2022-11-14T06:12:58.380Z,10.5
2022-11-14T06:14:10.460Z,10.5
2022-11-14T06:15:12.505Z,10.5
2022-11-14T06:16:19.617Z,10.5
2022-11-14T06:17:26.840Z,10.5
2022-11-14T06:18:33.391Z,10.5
2022-11-14T06:19:40.400Z,10.4
2022-11-14T06:20:47.588Z,10.4
2022-11-14T06:21:54.699Z,10.4
2022-11-14T06:23:01.233Z,10.4
2022-11-14T06:24:08.369Z,10.4
2022-11-14T06:25:15.435Z,10.4
2022-11-14T06:27:29.750Z,10.4
2022-11-14T06:28:36.252Z,10.4
2022-11-14T06:29:43.306Z,10.4
2022-11-14T06:30:50.462Z,10.4
2022-11-14T06:31:57.586Z,10.4
2022-11-14T06:33:04.672Z,10.4
2022-11-14T06:34:11.550Z,10.4
2022-11-14T06:35:18.369Z,10.4
2022-11-14T06:36:25.491Z,10.4
2022-11-14T06:37:33.853Z,10.4
2022-11-14T06:38:39.881Z,10.4
2022-11-14T06:39:46.285Z,10.4
2022-11-14T06:40:53.325Z,10.4
2022-11-14T06:42:00.481Z,10.3
2022-11-14T06:43:07.611Z,10.3
2022-11-14T06:44:14.670Z,10.3
2022-11-14T06:45:21.259Z,10.3
2022-11-14T06:46:28.418Z,10.3
2022-11-14T06:47:35.469Z,10.3
2022-11-14T06:48:42.569Z,10.3
2022-11-14T06:50:56.289Z,10.3
2022-11-14T06:52:03.338Z,10.3
2022-11-14T06:53:10.452Z,10.3
2022-11-14T06:55:25.624Z,10.3
2022-11-14T06:56:31.293Z,10.3
2022-11-14T06:57:38.462Z,10.3
2022-11-14T06:58:45.530Z,10.3
2022-11-14T06:59:52.586Z,10.3
2022-11-14T07:00:59.686Z,10.3
2022-11-14T07:02:06.284Z,10.3
2022-11-14T07:03:13.506Z,10.2
2022-11-14T07:04:20.574Z,10.2
2022-11-14T07:05:27.628Z,10.2
2022-11-14T07:06:34.695Z,10.2
2022-11-14T07:07:42.402Z,10.2
2022-11-14T07:08:48.413Z,10.2
2022-11-14T07:09:55.508Z,10.2
2022-11-14T07:11:02.574Z,10.2
2022-11-14T07:12:09.772Z,10.2
2022-11-14T07:14:23.383Z,10.2
2022-11-14T07:15:30.560Z,10.2
2022-11-14T07:16:37.621Z,10.2
2022-11-14T07:17:44.741Z,10.2
2022-11-14T07:18:51.266Z,10.2
2022-11-14T07:19:58.492Z,10.2
2022-11-14T07:21:05.518Z,10.2
2022-11-14T07:23:22.829Z,10.2
2022-11-14T07:24:26.360Z,10.2
2022-11-14T07:25:33.413Z,10.2
2022-11-14T07:26:40.662Z,10.2
2022-11-14T07:27:47.634Z,10.2
2022-11-14T07:28:59.218Z,10.2
2022-11-14T07:30:01.338Z,10.2
2022-11-14T07:32:15.577Z,10.2
2022-11-14T07:33:22.605Z,10.3
2022-11-14T07:34:29.783Z,10.3
2022-11-14T07:35:36.421Z,10.3
2022-11-14T07:36:43.503Z,10.3
2022-11-14T07:37:50.536Z,10.3
2022-11-14T07:38:57.664Z,10.3
2022-11-14T07:40:04.772Z,10.3
2022-11-14T07:41:11.322Z,10.3
2022-11-14T07:43:25.562Z,10.3
2022-11-14T07:44:32.621Z,10.3
2022-11-14T07:45:39.311Z,10.4
2022-11-14T07:46:46.333Z,10.4
2022-11-14T07:47:53.451Z,10.4
2022-11-14T07:49:01.112Z,10.4
2022-11-14T07:51:14.331Z,10.4
2022-11-14T07:52:21.368Z,10.4
2022-11-14T07:53:28.482Z,10.4
2022-11-14T07:54:35.621Z,10.4
2022-11-14T07:55:42.639Z,10.4
2022-11-14T07:56:49.322Z,10.4
2022-11-14T07:57:56.387Z,10.4
2022-11-14T07:59:03.495Z,10.4
2022-11-14T08:00:10.572Z,10.4
2022-11-14T08:01:17.734Z,10.4
2022-11-14T08:02:24.268Z,10.4
2022-11-14T08:03:31.410Z,10.4
2022-11-14T08:04:38.476Z,10.4
2022-11-14T08:05:45.579Z,10.4
2022-11-14T08:06:52.811Z,10.4
2022-11-14T08:07:59.282Z,10.4
2022-11-14T08:09:06.417Z,10.4
2022-11-14T08:10:13.450Z,10.4
2022-11-14T08:11:34.732Z,10.4
2022-11-14T08:13:34.304Z,10.4
2022-11-14T08:14:41.420Z,10.4
2022-11-14T08:15:48.491Z,10.4
2022-11-14T08:18:02.703Z,10.4
2022-11-14T08:19:09.336Z,10.4
2022-11-14T08:20:16.394Z,10.4
2022-11-14T08:21:23.492Z,10.4
2022-11-14T08:22:30.676Z,10.4
2022-11-14T08:23:37.784Z,10.4
2022-11-14T08:24:44.301Z,10.4
2022-11-14T08:25:51.402Z,10.4
2022-11-14T08:26:58.493Z,10.4
2022-11-14T08:28:05.638Z,10.4
2022-11-14T08:29:12.706Z,10.4
2022-11-14T08:30:20.363Z,10.4
2022-11-14T08:31:26.409Z,10.4
2022-11-14T08:32:33.597Z,10.5
2022-11-14T08:33:40.574Z,10.5
2022-11-14T08:34:47.774Z,10.5
2022-11-14T08:35:54.341Z,10.5
2022-11-14T08:37:01.391Z,10.5
2022-11-14T08:38:08.552Z,10.5
2022-11-14T08:39:15.620Z,10.5
2022-11-14T08:40:22.723Z,10.5
2022-11-14T08:41:29.312Z,10.5
2022-11-14T08:42:36.472Z,10.5
2022-11-14T08:43:43.491Z,10.5
2022-11-14T08:44:52.234Z,10.5
2022-11-14T08:46:01.051Z,10.5
2022-11-14T08:47:04.418Z,10.4
2022-11-14T08:48:11.400Z,10.4
2022-11-14T08:49:18.589Z,10.4
2022-11-14T08:50:25.885Z,10.4
2022-11-14T08:51:32.311Z,10.4
2022-11-14T08:52:39.353Z,10.4
2022-11-14T08:54:53.532Z,10.4
2022-11-14T08:56:00.639Z,10.4
2022-11-14T08:57:07.243Z,10.4
2022-11-14T08:58:14.381Z,10.4
2022-11-14T08:59:21.553Z,10.4
2022-11-14T09:00:28.542Z,10.4
2022-11-14T09:01:35.713Z,10.4
2022-11-14T09:02:42.410Z,10.4
2022-11-14T09:03:49.523Z,10.4
2022-11-14T09:04:56.563Z,10.4
2022-11-14T09:06:03.572Z,10.4
2022-11-14T09:07:10.703Z,10.4
2022-11-14T09:08:17.246Z,10.4
2022-11-14T09:09:24.389Z,10.4
2022-11-14T09:11:38.053Z,10.4
2022-11-14T09:12:48.179Z,10.4
2022-11-14T09:13:52.261Z,10.4
2022-11-14T09:14:59.407Z,10.5
2022-11-14T09:16:06.474Z,10.5
2022-11-14T09:17:13.625Z,10.5
2022-11-14T09:18:20.679Z,10.5
2022-11-14T09:19:27.294Z,10.5
2022-11-14T09:21:41.475Z,10.5
2022-11-14T09:22:48.580Z,10.5
2022-11-14T09:24:00.577Z,10.5
2022-11-14T09:25:02.316Z,10.5
2022-11-14T09:26:09.420Z,10.5
2022-11-14T09:27:16.572Z,10.6
2022-11-14T09:28:23.577Z,10.5
2022-11-14T09:29:30.691Z,10.5
2022-11-14T09:30:37.367Z,10.5
2022-11-14T09:31:44.379Z,10.5
2022-11-14T09:32:51.478Z,10.6
2022-11-14T09:33:58.630Z,10.6
2022-11-14T09:35:05.748Z,10.6
2022-11-14T09:36:12.253Z,10.6
2022-11-14T09:37:19.421Z,10.6
2022-11-14T09:38:26.491Z,10.6
2022-11-14T09:39:33.567Z,10.6
2022-11-14T09:40:40.701Z,10.6
2022-11-14T09:41:47.344Z,10.6
2022-11-14T09:42:54.435Z,10.6
2022-11-14T09:44:01.523Z,10.7
2022-11-14T09:45:08.658Z,10.6
2022-11-14T09:46:15.671Z,10.6
2022-11-14T09:47:22.301Z,10.7
2022-11-14T09:49:36.502Z,10.7
2022-11-14T09:50:43.631Z,10.7
2022-11-14T09:51:50.708Z,10.7
2022-11-14T09:52:58.392Z,10.7
2022-11-14T09:54:04.413Z,10.7
2022-11-14T09:55:11.531Z,10.7
2022-11-14T09:56:18.649Z,10.7
2022-11-14T09:57:25.280Z,10.7
2022-11-14T09:58:32.671Z,10.7
2022-11-14T09:59:39.480Z,10.7
2022-11-14T10:00:46.581Z,10.7
2022-11-14T10:01:53.838Z,10.7
2022-11-14T10:03:00.253Z,10.7
2022-11-14T10:04:09.618Z,10.7
2022-11-14T10:05:14.420Z,10.7
2022-11-14T10:06:21.544Z,10.7
2022-11-14T10:07:28.769Z,10.7
2022-11-14T10:08:35.296Z,10.7
2022-11-14T10:09:42.301Z,10.8
2022-11-14T10:10:49.473Z,10.7
2022-11-14T10:11:56.573Z,10.8
2022-11-14T10:13:03.761Z,10.8
2022-11-14T10:14:10.263Z,10.8
2022-11-14T10:15:17.415Z,10.8
2022-11-14T10:16:24.492Z,10.8
2022-11-14T10:17:31.552Z,10.8
2022-11-14T10:18:38.652Z,10.8
2022-11-14T10:19:45.281Z,10.8
2022-11-14T10:20:52.383Z,10.8
2022-11-14T10:21:59.478Z,10.8
2022-11-14T10:23:07.680Z,10.8
2022-11-14T10:25:20.319Z,10.8
2022-11-14T10:26:27.365Z,10.8
2022-11-14T10:27:34.521Z,10.9
2022-11-14T10:28:41.581Z,10.9
2022-11-14T10:29:48.663Z,10.9
2022-11-14T10:30:55.273Z,10.9
2022-11-14T10:32:02.399Z,10.8
2022-11-14T10:33:09.461Z,10.8
2022-11-14T10:34:17.141Z,10.9
2022-11-14T10:35:23.712Z,10.9
2022-11-14T10:36:30.273Z,10.9
2022-11-14T10:37:37.366Z,10.9
2022-11-14T10:39:51.592Z,10.9
2022-11-14T10:40:58.691Z,10.9
2022-11-14T10:42:07.838Z,10.9
2022-11-14T10:43:12.371Z,11
2022-11-14T10:44:19.520Z,11
2022-11-14T10:45:26.619Z,11
2022-11-14T10:46:33.663Z,11
2022-11-14T10:47:40.311Z,11
2022-11-14T10:48:47.401Z,11
2022-11-14T10:49:54.671Z,11
2022-11-14T10:51:01.035Z,11
2022-11-14T10:52:08.751Z,11
2022-11-14T10:53:15.245Z,11
2022-11-14T10:54:22.392Z,11
2022-11-14T10:55:50.063Z,11
2022-11-14T10:56:36.592Z,11
2022-11-14T10:57:43.208Z,11
2022-11-14T10:58:50.618Z,11
2022-11-14T10:59:57.447Z,11
2022-11-14T11:01:04.609Z,11
2022-11-14T11:02:11.675Z,11
2022-11-14T11:03:18.230Z,11
2022-11-14T11:04:25.410Z,11
2022-11-14T11:05:32.411Z,11
2022-11-14T11:06:39.550Z,11
2022-11-14T11:07:46.644Z,11.1
2022-11-14T11:08:53.294Z,11.1
2022-11-14T11:10:00.448Z,11.1
2022-11-14T11:11:07.451Z,11.1
2022-11-14T11:12:14.619Z,11.1
2022-11-14T11:13:21.621Z,11.1
2022-11-14T11:14:28.283Z,11.1
2022-11-14T11:15:35.374Z,11.1
2022-11-14T11:16:42.433Z,11.1
2022-11-14T11:17:49.586Z,11.1
2022-11-14T11:20:07.385Z,11.2
2022-11-14T11:21:10.402Z,11.1
2022-11-14T11:22:17.463Z,11.2
2022-11-14T11:23:24.634Z,11.1
2022-11-14T11:24:31.640Z,11.2
2022-11-14T11:25:38.350Z,11.1
2022-11-14T11:26:45.357Z,11.2
2022-11-14T11:28:59.612Z,11.2
2022-11-14T11:30:06.683Z,11.1
2022-11-14T11:31:13.258Z,11.2
2022-11-14T11:32:20.423Z,11.2
2022-11-14T11:33:27.605Z,11.2
2022-11-14T11:34:34.549Z,11.1
2022-11-14T11:35:41.681Z,11.2
2022-11-14T11:36:48.265Z,11.2
2022-11-14T11:37:55.340Z,11.2
2022-11-14T11:39:02.441Z,11.2
2022-11-14T11:40:09.574Z,11.2
2022-11-14T11:41:25.822Z,11.2
2022-11-14T11:42:23.268Z,11.2
2022-11-14T11:43:39.350Z,11.2
2022-11-14T11:44:37.447Z,11.2
2022-11-14T11:45:44.599Z,11.2
2022-11-14T11:47:58.334Z,11.2
2022-11-14T11:49:05.413Z,11.2
2022-11-14T11:50:12.507Z,11.2
2022-11-14T11:51:19.543Z,11.2
2022-11-14T11:52:26.201Z,11.2
2022-11-14T11:53:33.469Z,11.2
2022-11-14T11:54:40.362Z,11.2
2022-11-14T11:55:47.511Z,11.2
2022-11-14T11:56:55.144Z,11.3
2022-11-14T11:58:01.178Z,11.3
2022-11-14T11:59:08.305Z,11.3
2022-11-14T12:00:15.508Z,11.3
2022-11-14T12:01:22.460Z,11.3
2022-11-14T12:02:29.738Z,11.3
2022-11-14T12:03:36.579Z,11.3
2022-11-14T12:04:43.285Z,11.3
2022-11-14T12:05:50.350Z,11.3
2022-11-14T12:08:04.729Z,11.3
2022-11-14T12:09:11.206Z,11.3
2022-11-14T12:10:18.287Z,11.3
2022-11-14T12:11:25.432Z,11.3
2022-11-14T12:12:32.575Z,11.3
2022-11-14T12:13:39.785Z,11.3
2022-11-14T12:15:53.321Z,11.3
2022-11-14T12:17:00.399Z,11.3
2022-11-14T12:18:07.514Z,11.3
2022-11-14T12:19:14.754Z,11.3
2022-11-14T12:20:21.194Z,11.3
2022-11-14T12:21:28.364Z,11.3
2022-11-14T12:22:35.500Z,11.3
2022-11-14T12:23:42.475Z,11.3
2022-11-14T12:24:49.672Z,11.3
2022-11-14T12:25:56.195Z,11.3
2022-11-14T12:27:03.322Z,11.3
2022-11-14T12:28:10.400Z,11.3
2022-11-14T12:29:21.227Z,11.3
2022-11-14T12:30:24.761Z,11.3
2022-11-14T12:32:38.363Z,11.3
2022-11-14T12:33:45.448Z,11.3
2022-11-14T12:34:52.619Z,11.3
2022-11-14T12:35:59.633Z,11.3
2022-11-14T12:37:06.341Z,11.3
2022-11-14T12:39:20.466Z,11.3
2022-11-14T12:40:27.570Z,11.3
2022-11-14T12:41:34.702Z,11.3
2022-11-14T12:43:48.473Z,11.4
2022-11-14T12:44:55.462Z,11.4
2022-11-14T12:46:02.511Z,11.4
2022-11-14T12:47:09.633Z,11.4
2022-11-14T12:48:16.292Z,11.4
2022-11-14T12:49:23.377Z,11.4
2022-11-14T12:50:30.585Z,11.4
2022-11-14T12:51:37.610Z,11.4
2022-11-14T12:52:44.771Z,11.5
2022-11-14T12:53:51.254Z,11.5
2022-11-14T12:54:58.341Z,11.5
2022-11-14T12:56:05.493Z,11.5
2022-11-14T12:57:12.531Z,11.6
2022-11-14T12:58:19.147Z,11.6
2022-11-14T12:59:26.303Z,11.6
2022-11-14T13:00:33.569Z,11.6
2022-11-14T13:01:40.570Z,11.6
2022-11-14T13:02:48.282Z,11.6
2022-11-14T13:03:54.157Z,11.6
2022-11-14T13:05:01.285Z,11.6
2022-11-14T13:06:08.463Z,11.6
2022-11-14T13:07:15.578Z,11.6
2022-11-14T13:08:22.622Z,11.6
2022-11-14T13:09:29.174Z,11.6
2022-11-14T13:11:43.402Z,11.7
2022-11-14T13:12:50.489Z,11.7
2022-11-14T13:13:57.573Z,11.7
2022-11-14T13:15:04.232Z,11.7
2022-11-14T13:16:11.241Z,11.7
2022-11-14T13:17:18.418Z,11.7
2022-11-14T13:18:25.476Z,11.7
2022-11-14T13:20:39.232Z,11.7
2022-11-14T13:21:46.468Z,11.8
2022-11-14T13:22:53.435Z,11.8
2022-11-14T13:24:00.562Z,11.8
2022-11-14T13:25:07.657Z,11.8
2022-11-14T13:26:14.233Z,11.8
2022-11-14T13:27:27.308Z,11.8
2022-11-14T13:28:28.470Z,11.8
2022-11-14T13:29:35.575Z,11.8
2022-11-14T13:30:42.623Z,11.8
2022-11-14T13:31:50.291Z,11.8
2022-11-14T13:32:56.452Z,11.8
2022-11-14T13:34:03.360Z,11.8
2022-11-14T13:36:17.634Z,11.8
2022-11-14T13:37:24.260Z,11.8
2022-11-14T13:39:38.399Z,11.8
2022-11-14T13:40:45.544Z,11.9
2022-11-14T13:41:52.615Z,11.9
2022-11-14T13:42:59.243Z,11.9
2022-11-14T13:44:06.390Z,11.9
2022-11-14T13:45:13.420Z,11.9
2022-11-14T13:46:20.480Z,11.9
2022-11-14T13:47:27.614Z,11.9
2022-11-14T13:48:34.313Z,11.9
2022-11-14T13:49:41.353Z,11.9
2022-11-14T13:50:48.413Z,11.9
2022-11-14T13:51:55.570Z,11.9
2022-11-14T13:53:02.648Z,11.9
2022-11-14T13:54:12.289Z,11.9
2022-11-14T13:55:16.388Z,11.9
2022-11-14T13:56:23.415Z,11.9
2022-11-14T13:57:30.497Z,12
2022-11-14T13:58:37.129Z,12
2022-11-14T13:59:44.361Z,12
2022-11-14T14:01:58.473Z,12
2022-11-14T14:03:05.611Z,12
2022-11-14T14:04:12.243Z,12
2022-11-14T14:05:19.301Z,12
2022-11-14T14:07:33.520Z,12
2022-11-14T14:08:40.564Z,12
2022-11-14T14:09:47.173Z,12
2022-11-14T14:10:54.236Z,12
2022-11-14T14:12:01.314Z,12
2022-11-14T14:13:08.520Z,12
2022-11-14T14:14:15.547Z,12
2022-11-14T14:15:22.111Z,12
2022-11-14T14:16:29.332Z,12
2022-11-14T14:17:36.426Z,12
2022-11-14T14:18:43.463Z,12
2022-11-14T14:19:50.535Z,12
2022-11-14T14:20:57.219Z,12
2022-11-14T14:22:04.323Z,12
2022-11-14T14:23:11.327Z,12
2022-11-14T14:24:18.485Z,12
2022-11-14T14:25:25.580Z,12
2022-11-14T14:26:32.149Z,12
2022-11-14T14:27:39.369Z,12
2022-11-14T14:28:46.380Z,12
2022-11-14T14:29:53.481Z,12
2022-11-14T14:31:00.550Z,12
2022-11-14T14:32:07.183Z,12
2022-11-14T14:33:14.365Z,12
2022-11-14T14:34:21.349Z,12
2022-11-14T14:35:28.481Z,12
2022-11-14T14:36:35.634Z,12
2022-11-14T14:37:42.222Z,12
2022-11-14T14:39:56.412Z,12
2022-11-14T14:41:03.525Z,12
2022-11-14T14:43:17.322Z,12
2022-11-14T14:44:24.290Z,12
2022-11-14T14:45:31.434Z,12
2022-11-14T14:46:38.542Z,12
2022-11-14T14:47:45.599Z,12
2022-11-14T14:48:52.212Z,12
2022-11-14T14:49:59.346Z,12
2022-11-14T14:51:06.489Z,12
2022-11-14T14:52:13.504Z,12
2022-11-14T14:53:20.655Z,12
2022-11-14T14:54:27.190Z,12
2022-11-14T14:55:34.332Z,12
2022-11-14T14:56:41.382Z,12
2022-11-14T14:57:48.553Z,12
2022-11-14T14:58:55.677Z,12
2022-11-14T15:00:02.257Z,12
2022-11-14T15:01:09.355Z,12
2022-11-14T15:02:16.426Z,12
2022-11-14T15:04:30.188Z,12
2022-11-14T15:05:37.219Z,12
2022-11-14T15:06:44.374Z,12
2022-11-14T15:07:51.488Z,12
2022-11-14T15:08:58.064Z,12
2022-11-14T15:10:05.160Z,12
2022-11-14T15:11:12.231Z,12
2022-11-14T15:12:19.394Z,12
2022-11-14T15:13:26.470Z,12
2022-11-14T15:14:33.495Z,12
2022-11-14T15:15:40.274Z,12
2022-11-14T15:16:47.341Z,12
2022-11-14T15:17:54.320Z,12
2022-11-14T15:19:01.524Z,12
2022-11-14T15:20:08.619Z,12
2022-11-14T15:21:15.238Z,12
2022-11-14T15:22:22.260Z,12
2022-11-14T15:24:36.458Z,12
2022-11-14T15:25:43.521Z,12
2022-11-14T15:26:50.139Z,12
2022-11-14T15:27:57.364Z,12
2022-11-14T15:29:04.458Z,12
2022-11-14T15:30:11.501Z,12
2022-11-14T15:31:18.555Z,12
2022-11-14T15:32:25.251Z,12
2022-11-14T15:33:32.292Z,12
2022-11-14T15:34:39.511Z,12
2022-11-14T15:35:46.459Z,12
2022-11-14T15:39:07.317Z,12
2022-11-14T15:40:02.609Z,12
2022-11-14T15:40:14.734Z,12
2022-11-14T15:41:21.530Z,12
2022-11-14T15:43:35.171Z,12
2022-11-14T15:44:42.224Z,12
2022-11-14T15:45:49.428Z,12
2022-11-14T15:46:56.586Z,12
2022-11-14T15:48:03.847Z,12
2022-11-14T15:49:10.172Z,12
2022-11-14T15:50:17.312Z,12
2022-11-14T15:51:24.437Z,11.9
2022-11-14T15:52:31.527Z,11.9
2022-11-14T15:53:38.641Z,11.9
2022-11-14T15:54:45.233Z,11.9
2022-11-14T15:55:52.363Z,11.9
2022-11-14T15:56:59.466Z,11.9
2022-11-14T15:58:27.331Z,11.9
2022-11-14T15:59:13.618Z,11.9
2022-11-14T16:00:20.227Z,11.9
2022-11-14T16:01:27.433Z,11.9
2022-11-14T16:02:34.460Z,11.9
2022-11-14T16:03:41.516Z,11.9
2022-11-14T16:05:55.271Z,11.8
2022-11-14T16:07:02.426Z,11.9
2022-11-14T16:08:09.499Z,11.9
2022-11-14T16:09:16.584Z,11.8
2022-11-14T16:10:23.131Z,11.8
2022-11-14T16:11:30.192Z,11.8
2022-11-14T16:12:37.420Z,11.8
2022-11-14T16:13:44.461Z,11.8
2022-11-14T16:14:51.488Z,11.8
2022-11-14T16:15:58.167Z,11.8
2022-11-14T16:17:05.208Z,11.8
2022-11-14T16:18:12.385Z,11.7
2022-11-14T16:19:19.589Z,11.7
2022-11-14T16:20:26.648Z,11.7
2022-11-14T16:21:33.143Z,11.7
2022-11-14T16:22:40.310Z,11.7
2022-11-14T16:23:47.420Z,11.7
2022-11-14T16:24:54.557Z,11.7
2022-11-14T16:26:01.621Z,11.7
2022-11-14T16:27:08.113Z,11.7
2022-11-14T16:28:15.285Z,11.7
2022-11-14T16:29:22.384Z,11.7
2022-11-14T16:30:29.462Z,11.6